createdAt,value
2022-11-15T00:00:51.036Z,70.40
2022-11-15T00:03:19.376Z,70.40
2022-11-15T00:05:47.709Z,70.40
2022-11-15T00:08:15.836Z,70.40
2022-11-15T00:10:44.075Z,70.40
2022-11-15T00:13:14.329Z,70.50
2022-11-15T00:15:43.044Z,70.50
2022-11-15T00:18:14.164Z,70.60
2022-11-15T00:20:42.377Z,70.60
2022-11-15T00:23:10.453Z,70.70
2022-11-15T00:25:38.545Z,70.70
2022-11-15T00:28:06.659Z,70.60
2022-11-15T00:30:36.815Z,70.70
2022-11-15T00:33:05.240Z,70.80
2022-11-15T00:35:34.295Z,70.90
2022-11-15T00:38:02.519Z,70.90
2022-11-15T00:40:30.706Z,71.00
2022-11-15T00:42:58.825Z,71.00
2022-11-15T00:45:27.248Z,71.00
2022-11-15T00:47:56.756Z,71.00
2022-11-15T00:50:25.245Z,71.10
2022-11-15T00:52:53.398Z,71.20
2022-11-15T00:55:21.748Z,71.20
2022-11-15T00:57:49.821Z,71.20
2022-11-15T01:00:18.759Z,71.20
2022-11-15T01:02:46.847Z,71.20
2022-11-15T01:05:16.492Z,71.30
2022-11-15T01:07:44.583Z,71.30
2022-11-15T01:10:12.666Z,71.40
2022-11-15T01:12:40.903Z,71.40
2022-11-15T01:15:09.762Z,71.40
2022-11-15T01:17:37.823Z,71.50
2022-11-15T01:20:06.484Z,71.50
2022-11-15T01:22:35.994Z,71.50
2022-11-15T01:25:04.162Z,71.50
2022-11-15T01:27:32.230Z,71.60
2022-11-15T01:30:00.301Z,71.60
2022-11-15T01:32:28.416Z,71.60
2022-11-15T01:34:56.501Z,71.60
2022-11-15T01:37:24.536Z,71.80
2022-11-15T01:39:53.981Z,71.80
2022-11-15T01:42:22.041Z,71.90
2022-11-15T01:44:50.583Z,71.90
2022-11-15T01:47:19.518Z,72.00
2022-11-15T01:49:54.245Z,72.00
2022-11-15T01:52:23.091Z,72.10
2022-11-15T01:54:54.768Z,72.10
2022-11-15T01:57:22.886Z,72.10
2022-11-15T01:59:51.006Z,72.10
2022-11-15T02:02:19.139Z,72.10
2022-11-15T02:04:48.052Z,72.20
2022-11-15T02:07:17.959Z,72.20
2022-11-15T02:09:46.107Z,72.20
2022-11-15T02:12:16.134Z,72.20
2022-11-15T02:14:45.169Z,72.20
2022-11-15T02:17:23.523Z,72.30
2022-11-15T02:20:19.321Z,72.40
2022-11-15T02:22:53.191Z,72.30
2022-11-15T02:25:32.656Z,72.40
2022-11-15T02:28:19.974Z,72.30
2022-11-15T02:30:50.371Z,72.40
2022-11-15T02:33:27.014Z,72.40
2022-11-15T02:35:59.483Z,72.50
2022-11-15T02:38:32.039Z,72.60
2022-11-15T02:41:01.357Z,72.60
2022-11-15T02:43:49.374Z,72.50
2022-11-15T02:46:21.405Z,72.60
2022-11-15T02:48:49.540Z,72.60
2022-11-15T02:51:17.712Z,72.60
2022-11-15T02:53:45.809Z,72.60
2022-11-15T02:56:14.340Z,72.60
2022-11-15T02:58:54.718Z,72.70
2022-11-15T03:01:30.456Z,72.80
2022-11-15T03:04:02.774Z,72.70
2022-11-15T03:06:35.355Z,72.80
2022-11-15T03:09:06.447Z,72.90
2022-11-15T03:11:35.477Z,72.80
2022-11-15T03:14:05.234Z,72.90
2022-11-15T03:16:36.797Z,73.00
2022-11-15T03:19:07.064Z,73.00
2022-11-15T03:21:35.180Z,73.00
2022-11-15T03:24:05.154Z,73.00
2022-11-15T03:26:33.286Z,73.00
2022-11-15T03:29:02.757Z,73.10
2022-11-15T03:31:58.348Z,73.20
2022-11-15T03:34:30.013Z,73.20
2022-11-15T03:36:58.163Z,73.30
2022-11-15T03:39:26.308Z,73.20
2022-11-15T03:41:58.844Z,73.20
2022-11-15T03:44:33.978Z,73.30
2022-11-15T03:47:04.907Z,73.30
2022-11-15T03:49:35.582Z,73.40
2022-11-15T03:52:04.439Z,73.40
2022-11-15T03:54:32.664Z,73.40
2022-11-15T03:57:00.743Z,73.40
2022-11-15T03:59:28.881Z,73.50
2022-11-15T04:01:57.001Z,73.50
2022-11-15T04:04:25.252Z,73.60
2022-11-15T04:06:54.821Z,73.60
2022-11-15T04:09:22.953Z,73.70
2022-11-15T04:11:51.085Z,73.60
2022-11-15T04:14:19.207Z,73.60
2022-11-15T04:16:47.297Z,73.70
2022-11-15T04:19:38.072Z,73.80
2022-11-15T04:22:29.180Z,73.90
2022-11-15T04:24:57.239Z,73.90
2022-11-15T04:27:25.336Z,73.90
2022-11-15T04:29:53.509Z,74.00
2022-11-15T04:32:21.662Z,74.00
2022-11-15T04:34:49.803Z,74.00
2022-11-15T04:37:19.420Z,74.00
2022-11-15T04:39:53.206Z,74.00
2022-11-15T04:42:21.346Z,74.00
2022-11-15T04:44:49.442Z,74.10
2022-11-15T04:47:17.832Z,74.10
2022-11-15T04:49:48.664Z,74.20
2022-11-15T04:52:18.265Z,74.20
2022-11-15T04:54:46.366Z,74.20
2022-11-15T04:57:14.464Z,74.30
2022-11-15T04:59:42.580Z,74.30
2022-11-15T05:02:10.705Z,74.30
2022-11-15T05:04:37.866Z,74.30
2022-11-15T05:07:06.317Z,74.30
2022-11-15T05:09:35.854Z,74.40
2022-11-15T05:12:03.999Z,74.50
2022-11-15T05:14:32.110Z,74.50
2022-11-15T05:17:00.239Z,74.70
2022-11-15T05:19:28.373Z,74.60
2022-11-15T05:21:56.515Z,74.70
2022-11-15T05:24:24.660Z,74.60
2022-11-15T05:26:54.181Z,74.70
2022-11-15T05:29:22.385Z,74.70
2022-11-15T05:31:50.601Z,74.80
2022-11-15T05:34:19.193Z,74.70
2022-11-15T05:36:47.640Z,74.70
2022-11-15T05:39:15.780Z,74.70
2022-11-15T05:41:45.189Z,74.70
2022-11-15T05:44:15.809Z,74.80
2022-11-15T05:46:43.900Z,75.00
2022-11-15T05:49:13.333Z,75.00
2022-11-15T05:51:41.571Z,74.90
2022-11-15T05:54:09.667Z,74.80
2022-11-15T05:56:37.973Z,74.80
2022-11-15T05:59:07.200Z,74.90
2022-11-15T06:01:51.613Z,74.90
2022-11-15T06:04:19.810Z,74.90
2022-11-15T06:06:47.945Z,74.90
2022-11-15T06:09:16.084Z,74.90
2022-11-15T06:11:44.190Z,75.00
2022-11-15T06:14:12.343Z,75.00
2022-11-15T06:16:40.600Z,75.00
2022-11-15T06:19:10.137Z,75.30
2022-11-15T06:21:38.305Z,75.10
2022-11-15T06:24:07.133Z,75.00
2022-11-15T06:26:35.204Z,75.10
2022-11-15T06:29:04.981Z,75.10
2022-11-15T06:31:33.193Z,75.10
2022-11-15T06:34:01.325Z,75.20
2022-11-15T06:36:30.823Z,75.20
2022-11-15T06:38:59.112Z,75.20
2022-11-15T06:41:27.261Z,75.20
2022-11-15T06:43:55.416Z,75.20
2022-11-15T06:46:23.537Z,75.20
2022-11-15T06:48:52.954Z,75.20
2022-11-15T06:51:21.082Z,75.30
2022-11-15T06:53:50.547Z,75.30
2022-11-15T06:56:18.664Z,75.30
2022-11-15T06:58:47.058Z,75.30
2022-11-15T07:01:15.239Z,75.40
2022-11-15T07:03:43.869Z,75.30
2022-11-15T07:06:12.219Z,75.40
2022-11-15T07:08:40.360Z,75.40
2022-11-15T07:11:10.137Z,75.50
2022-11-15T07:13:38.821Z,75.40
2022-11-15T07:16:07.481Z,75.40
2022-11-15T07:18:36.345Z,75.40
2022-11-15T07:21:05.028Z,75.40
2022-11-15T07:23:40.496Z,75.40
2022-11-15T07:26:10.156Z,75.60
2022-11-15T07:28:38.609Z,75.50
2022-11-15T07:31:07.432Z,75.60
2022-11-15T07:33:35.639Z,75.60
2022-11-15T07:36:04.042Z,75.60
2022-11-15T07:38:32.387Z,75.60
2022-11-15T07:41:00.976Z,75.70
2022-11-15T07:43:31.042Z,75.70
2022-11-15T07:45:59.922Z,75.70
2022-11-15T07:48:40.239Z,75.80
2022-11-15T07:51:14.303Z,75.70
2022-11-15T07:53:42.931Z,75.80
2022-11-15T07:56:11.856Z,75.90
2022-11-15T07:58:41.402Z,75.90
2022-11-15T08:01:10.996Z,75.90
2022-11-15T08:03:39.330Z,75.90
2022-11-15T08:06:07.795Z,75.90
2022-11-15T08:08:35.980Z,75.90
2022-11-15T08:11:04.381Z,76.00
2022-11-15T08:13:33.018Z,75.90
2022-11-15T08:16:02.937Z,76.00
2022-11-15T08:18:32.408Z,76.10
2022-11-15T08:21:01.499Z,76.10
2022-11-15T08:23:30.218Z,76.00
2022-11-15T08:26:03.282Z,76.10
2022-11-15T08:28:31.498Z,76.00
2022-11-15T08:30:59.633Z,76.10
2022-11-15T08:33:29.526Z,76.10
2022-11-15T08:35:58.690Z,76.00
2022-11-15T08:38:26.850Z,76.00
2022-11-15T08:40:55.332Z,76.00
2022-11-15T08:43:23.401Z,76.00
2022-11-15T08:45:51.486Z,76.00
2022-11-15T08:48:19.890Z,76.00
2022-11-15T08:50:49.531Z,76.00
2022-11-15T08:53:17.629Z,76.00
2022-11-15T08:55:45.717Z,76.10
2022-11-15T08:58:13.850Z,76.00
2022-11-15T09:00:42.050Z,76.20
2022-11-15T09:03:11.305Z,76.00
2022-11-15T09:05:39.643Z,76.20
2022-11-15T09:08:32.817Z,76.30
2022-11-15T09:10:57.330Z,76.10
2022-11-15T09:13:25.481Z,76.00
2022-11-15T09:15:53.783Z,76.00
2022-11-15T09:18:58.775Z,76.10
2022-11-15T09:21:26.816Z,76.30
2022-11-15T09:23:54.978Z,76.40
2022-11-15T09:26:23.037Z,76.30
2022-11-15T09:28:51.164Z,76.20
2022-11-15T09:31:19.516Z,76.30
2022-11-15T09:33:50.672Z,76.30
2022-11-15T09:36:20.569Z,76.20
2022-11-15T09:38:48.651Z,76.20
2022-11-15T09:41:46.535Z,76.20
2022-11-15T09:44:31.748Z,76.20
2022-11-15T09:47:01.993Z,76.20
2022-11-15T09:49:30.205Z,76.20
2022-11-15T09:51:59.652Z,76.10
2022-11-15T09:57:22.691Z,76.20
2022-11-15T10:00:12.383Z,76.20
2022-11-15T10:03:04.954Z,76.20
2022-11-15T10:05:33.112Z,76.10
2022-11-15T10:08:05.736Z,76.20
2022-11-15T10:10:38.021Z,76.20
2022-11-15T10:13:06.158Z,76.20
2022-11-15T10:15:34.443Z,76.20
2022-11-15T10:18:08.555Z,76.20
2022-11-15T10:20:41.365Z,76.20
2022-11-15T10:23:25.662Z,76.20
2022-11-15T10:25:54.844Z,76.20
2022-11-15T10:28:24.629Z,76.20
2022-11-15T10:30:54.420Z,76.20
2022-11-15T10:33:29.171Z,76.10
2022-11-15T10:36:20.221Z,76.10
2022-11-15T10:38:55.949Z,76.00
2022-11-15T10:41:24.701Z,76.10
2022-11-15T10:44:09.686Z,76.00
2022-11-15T10:46:47.543Z,76.00
2022-11-15T10:49:17.323Z,76.00
2022-11-15T10:51:47.602Z,76.00
2022-11-15T10:54:21.254Z,76.00
2022-11-15T10:56:53.276Z,76.00
2022-11-15T10:59:25.662Z,76.00
2022-11-15T11:01:53.680Z,76.00
2022-11-15T11:04:21.753Z,76.00
2022-11-15T11:06:51.264Z,75.90
2022-11-15T11:09:33.709Z,75.90
2022-11-15T11:12:02.219Z,76.00
2022-11-15T11:14:32.341Z,76.00
2022-11-15T11:17:05.242Z,76.00
2022-11-15T11:19:41.787Z,76.10
2022-11-15T11:22:14.463Z,76.00
2022-11-15T11:24:46.996Z,76.00
2022-11-15T11:27:20.985Z,76.00
2022-11-15T11:30:02.867Z,75.90
2022-11-15T11:32:42.424Z,76.00
2022-11-15T11:35:14.236Z,76.00
2022-11-15T11:37:46.493Z,75.90
2022-11-15T11:40:22.889Z,75.90
2022-11-15T11:43:00.205Z,75.90
2022-11-15T11:45:50.994Z,75.90
2022-11-15T11:48:25.882Z,75.90
2022-11-15T11:50:53.908Z,75.90
2022-11-15T11:53:26.520Z,75.80
2022-11-15T11:55:56.567Z,75.80
2022-11-15T11:58:30.738Z,75.70
2022-11-15T12:01:02.237Z,75.70
2022-11-15T12:03:41.866Z,75.60
2022-11-15T12:06:16.791Z,75.70
2022-11-15T12:08:48.175Z,75.60
2022-11-15T12:11:19.591Z,75.70
2022-11-15T12:13:47.794Z,75.70
2022-11-15T12:16:18.398Z,75.70
2022-11-15T12:18:51.797Z,75.70
2022-11-15T12:21:28.251Z,75.60
2022-11-15T12:23:58.203Z,75.70
2022-11-15T12:26:28.717Z,75.70
2022-11-15T12:29:07.420Z,75.60
2022-11-15T12:31:39.487Z,75.60
2022-11-15T12:34:17.046Z,75.60
2022-11-15T12:36:45.305Z,75.60
2022-11-15T12:39:13.472Z,75.50
2022-11-15T12:41:43.250Z,75.60
2022-11-15T12:44:13.968Z,75.50
2022-11-15T12:47:06.865Z,75.60
2022-11-15T12:49:47.933Z,75.50
2022-11-15T12:52:16.139Z,75.50
2022-11-15T12:55:06.050Z,75.50
2022-11-15T12:57:45.494Z,75.50
2022-11-15T13:00:43.346Z,75.50
2022-11-15T13:03:25.552Z,75.40
2022-11-15T13:06:07.950Z,75.50
2022-11-15T13:08:50.118Z,75.40
2022-11-15T13:11:51.775Z,75.40
2022-11-15T13:14:42.880Z,75.40
2022-11-15T13:17:31.893Z,75.30
2022-11-15T13:20:02.710Z,75.30
2022-11-15T13:22:49.076Z,75.30
2022-11-15T13:25:20.155Z,75.30
2022-11-15T13:27:48.983Z,75.20
2022-11-15T13:30:22.262Z,75.20
2022-11-15T13:32:50.377Z,75.20
2022-11-15T13:35:22.686Z,75.20
2022-11-15T13:37:51.008Z,75.20
2022-11-15T13:40:34.151Z,75.20
2022-11-15T13:43:02.193Z,75.20
2022-11-15T13:45:31.611Z,75.20
2022-11-15T13:48:00.087Z,75.20
2022-11-15T13:50:29.951Z,75.20
2022-11-15T13:52:59.359Z,75.10
2022-11-15T13:55:27.440Z,75.10
2022-11-15T13:57:56.921Z,75.10
2022-11-15T14:00:36.764Z,75.10
2022-11-15T14:03:09.636Z,75.10
2022-11-15T14:05:37.909Z,75.00
2022-11-15T14:08:14.758Z,75.00
2022-11-15T14:10:42.799Z,75.00
2022-11-15T14:13:14.402Z,75.00
2022-11-15T14:15:43.873Z,75.00
2022-11-15T14:18:43.674Z,74.90
2022-11-15T14:21:11.893Z,74.90
2022-11-15T14:23:39.956Z,74.90
2022-11-15T14:26:12.029Z,74.90
2022-11-15T14:28:40.412Z,74.80
2022-11-15T14:31:14.345Z,74.80
2022-11-15T14:33:42.575Z,74.80
2022-11-15T14:36:14.001Z,74.80
2022-11-15T14:38:43.782Z,74.80
2022-11-15T14:41:18.885Z,74.70
2022-11-15T14:43:46.995Z,74.80
2022-11-15T14:46:16.433Z,74.70
2022-11-15T14:48:44.450Z,74.80
2022-11-15T14:51:14.467Z,74.80
2022-11-15T14:53:43.758Z,74.70
2022-11-15T14:56:11.944Z,74.70
2022-11-15T14:58:40.001Z,74.70
2022-11-15T15:01:13.391Z,74.80
2022-11-15T15:03:44.934Z,74.90
2022-11-15T15:06:17.840Z,75.00
2022-11-15T15:08:46.872Z,75.00
2022-11-15T15:11:17.887Z,75.00
2022-11-15T15:13:45.996Z,74.90
2022-11-15T15:16:14.093Z,74.90
2022-11-15T15:18:44.378Z,75.00
2022-11-15T15:21:20.392Z,75.10
2022-11-15T15:23:48.460Z,75.00
2022-11-15T15:26:16.796Z,74.90
2022-11-15T15:28:44.889Z,74.90
2022-11-15T15:31:13.325Z,74.80
2022-11-15T15:33:41.592Z,74.90
2022-11-15T15:36:13.236Z,74.90
2022-11-15T15:38:42.391Z,74.90
2022-11-15T15:41:12.576Z,74.90
2022-11-15T15:43:41.346Z,75.10
2022-11-15T15:46:11.155Z,75.00
2022-11-15T15:48:40.916Z,75.00
2022-11-15T15:51:20.687Z,75.00
2022-11-15T15:53:49.806Z,75.00
2022-11-15T15:56:18.068Z,75.10
2022-11-15T15:58:46.428Z,75.40
2022-11-15T16:01:15.240Z,75.40
2022-11-15T16:03:43.748Z,75.50
2022-11-15T16:06:37.315Z,75.90
2022-11-15T16:09:20.802Z,75.70
2022-11-15T16:11:49.285Z,75.90
2022-11-15T16:14:17.373Z,75.90
2022-11-15T16:16:45.526Z,75.90
2022-11-15T16:19:14.158Z,75.90
2022-11-15T16:21:43.715Z,75.90
2022-11-15T16:24:12.097Z,75.90
2022-11-15T16:26:40.223Z,75.90
2022-11-15T16:29:10.207Z,76.10
2022-11-15T16:31:38.424Z,76.20
2022-11-15T16:34:07.296Z,76.10
2022-11-15T16:36:35.954Z,76.10
2022-11-15T16:39:06.044Z,76.10
2022-11-15T16:41:34.363Z,76.10
2022-11-15T16:44:02.448Z,76.10
2022-11-15T16:46:30.534Z,76.10
2022-11-15T16:48:58.579Z,75.90
2022-11-15T16:51:26.689Z,76.10
2022-11-15T16:53:54.818Z,75.90
2022-11-15T16:56:33.758Z,75.90
2022-11-15T16:59:02.432Z,75.90
2022-11-15T17:01:32.819Z,75.90
2022-11-15T17:04:12.520Z,75.90
2022-11-15T17:06:41.251Z,75.90
2022-11-15T17:09:11.894Z,75.90
2022-11-15T17:11:41.832Z,75.90
2022-11-15T17:14:10.098Z,75.90
2022-11-15T17:16:42.116Z,75.90
2022-11-15T17:19:14.268Z,75.90
2022-11-15T17:21:42.415Z,75.90
2022-11-15T17:24:10.835Z,75.90
2022-11-15T17:26:40.805Z,75.90
2022-11-15T17:29:10.918Z,75.90
2022-11-15T17:31:39.333Z,75.90
2022-11-15T17:34:07.887Z,75.90
2022-11-15T17:36:36.051Z,75.90
2022-11-15T17:39:04.295Z,75.90
2022-11-15T17:41:32.610Z,75.90
2022-11-15T17:44:01.983Z,75.90
2022-11-15T17:46:31.540Z,75.90
2022-11-15T17:48:59.613Z,75.90
2022-11-15T17:51:27.838Z,75.90
2022-11-15T17:53:56.293Z,75.90
2022-11-15T17:56:25.973Z,75.90
2022-11-15T17:58:54.998Z,75.90
2022-11-15T18:01:24.484Z,75.90
2022-11-15T18:03:54.042Z,75.90
2022-11-15T18:06:22.851Z,75.90
2022-11-15T18:08:55.958Z,75.90
2022-11-15T18:11:24.745Z,75.80
2022-11-15T18:13:54.236Z,75.80
2022-11-15T18:16:24.713Z,75.80
2022-11-15T18:18:54.334Z,75.80
2022-11-15T18:21:23.315Z,75.80
2022-11-15T18:23:53.884Z,75.80
2022-11-15T18:26:26.707Z,75.80
2022-11-15T18:28:55.805Z,75.80
2022-11-15T18:31:25.160Z,75.80
2022-11-15T18:33:54.729Z,75.80
2022-11-15T18:36:23.629Z,75.80
2022-11-15T18:38:55.278Z,75.80
2022-11-15T18:41:25.395Z,75.70
2022-11-15T18:43:53.855Z,75.70
2022-11-15T18:46:23.058Z,75.80
2022-11-15T18:48:51.917Z,75.80
2022-11-15T18:51:21.956Z,75.80
2022-11-15T18:53:50.198Z,75.80
2022-11-15T18:56:19.484Z,75.80
2022-11-15T18:58:49.055Z,75.80
2022-11-15T19:01:17.907Z,75.80
2022-11-15T19:03:47.024Z,75.80
2022-11-15T19:06:17.867Z,75.70
2022-11-15T19:09:02.140Z,75.70
2022-11-15T19:11:31.347Z,75.70
2022-11-15T19:14:00.592Z,75.70
2022-11-15T19:16:29.199Z,75.80
2022-11-15T19:18:57.704Z,75.80
2022-11-15T19:21:26.076Z,75.80
2022-11-15T19:23:54.280Z,75.80
2022-11-15T19:26:24.064Z,75.80
2022-11-15T19:28:52.548Z,75.80
2022-11-15T19:31:20.752Z,75.80
2022-11-15T19:33:48.883Z,75.90
2022-11-15T19:36:17.735Z,75.90
2022-11-15T19:38:45.765Z,75.90
2022-11-15T19:41:25.806Z,75.90
2022-11-15T19:43:54.099Z,75.90
2022-11-15T19:46:23.632Z,75.90
2022-11-15T19:48:51.884Z,75.90
2022-11-15T19:51:21.578Z,75.90
2022-11-15T19:53:49.719Z,76.00
2022-11-15T19:56:18.485Z,76.00
2022-11-15T19:58:48.041Z,76.00
2022-11-15T20:01:18.583Z,76.10
2022-11-15T20:03:47.442Z,76.10
2022-11-15T20:06:17.038Z,76.00
2022-11-15T20:08:45.104Z,76.10
2022-11-15T20:11:13.523Z,76.10
2022-11-15T20:13:44.826Z,76.10
2022-11-15T20:16:16.598Z,76.20
2022-11-15T20:18:44.723Z,76.20
2022-11-15T20:21:13.113Z,76.30
2022-11-15T20:23:41.229Z,76.40
2022-11-15T20:26:09.575Z,76.40
2022-11-15T20:28:38.138Z,76.30
2022-11-15T20:31:06.529Z,76.30
2022-11-15T20:33:38.808Z,76.30
2022-11-15T20:36:07.407Z,76.30
2022-11-15T20:38:35.843Z,76.40
2022-11-15T20:41:04.248Z,76.50
2022-11-15T20:43:32.386Z,76.40
2022-11-15T20:46:00.408Z,76.40
2022-11-15T20:48:28.477Z,76.40
2022-11-15T20:51:06.816Z,76.50
2022-11-15T20:53:35.044Z,76.50
2022-11-15T20:56:08.466Z,76.50
2022-11-15T20:58:36.720Z,76.60
2022-11-15T21:01:04.980Z,76.60
2022-11-15T21:03:33.659Z,76.60
2022-11-15T21:06:01.660Z,76.60
2022-11-15T21:08:52.514Z,76.70
2022-11-15T21:11:39.113Z,76.70
2022-11-15T21:14:09.592Z,76.70
2022-11-15T21:16:38.024Z,76.90
2022-11-15T21:19:06.546Z,76.80
2022-11-15T21:21:34.764Z,76.90
2022-11-15T21:24:05.296Z,76.90
2022-11-15T21:26:33.733Z,76.80
2022-11-15T21:29:01.782Z,76.90
2022-11-15T21:31:29.824Z,76.90
2022-11-15T21:33:57.916Z,76.90
2022-11-15T21:36:26.501Z,76.90
2022-11-15T21:38:54.747Z,77.00
2022-11-15T21:41:24.168Z,77.00
2022-11-15T21:43:52.240Z,77.00
2022-11-15T21:46:20.283Z,77.10
2022-11-15T21:48:48.367Z,77.10
2022-11-15T21:51:16.384Z,77.00
2022-11-15T21:53:44.508Z,77.00
2022-11-15T21:56:12.944Z,77.00
2022-11-15T21:58:42.467Z,77.00
2022-11-15T22:01:28.971Z,77.00
2022-11-15T22:04:00.124Z,77.10
2022-11-15T22:06:28.381Z,77.00
2022-11-15T22:08:56.662Z,77.00
2022-11-15T22:11:24.702Z,77.00
2022-11-15T22:13:54.086Z,77.10
2022-11-15T22:16:22.113Z,77.00
2022-11-15T22:18:50.240Z,77.00
2022-11-15T22:21:18.998Z,77.10
2022-11-15T22:23:47.375Z,77.20
2022-11-15T22:26:22.017Z,77.20
2022-11-15T22:28:51.464Z,77.10
2022-11-15T22:31:20.925Z,77.00
2022-11-15T22:33:48.999Z,77.10
2022-11-15T22:36:17.160Z,77.10
2022-11-15T22:38:45.268Z,77.10
2022-11-15T22:41:13.831Z,77.10
2022-11-15T22:43:41.915Z,77.20
2022-11-15T22:46:10.752Z,77.20
2022-11-15T22:48:40.424Z,77.20
2022-11-15T22:51:08.606Z,77.20
2022-11-15T22:53:36.723Z,77.20
2022-11-15T22:56:06.202Z,77.20
2022-11-15T22:58:37.377Z,77.30
2022-11-15T23:01:06.116Z,77.30
2022-11-15T23:03:34.329Z,77.30
2022-11-15T23:06:04.867Z,77.40
2022-11-15T23:08:32.968Z,77.40
2022-11-15T23:11:19.399Z,77.50
2022-11-15T23:13:47.727Z,77.50
2022-11-15T23:16:25.906Z,77.40
2022-11-15T23:18:54.971Z,77.50
2022-11-15T23:21:43.377Z,77.50
2022-11-15T23:24:11.812Z,77.50
2022-11-15T23:26:39.945Z,77.60
2022-11-15T23:29:09.242Z,77.60
2022-11-15T23:32:01.680Z,77.60
2022-11-15T23:34:30.382Z,77.60
2022-11-15T23:37:00.011Z,77.60
2022-11-15T23:39:28.216Z,77.70
2022-11-15T23:41:56.412Z,77.80
2022-11-15T23:44:24.540Z,77.80
2022-11-15T23:46:52.658Z,77.80
2022-11-15T23:49:20.777Z,77.80
2022-11-15T23:51:48.910Z,77.80
2022-11-15T23:54:18.552Z,77.80
2022-11-15T23:56:46.712Z,77.80
2022-11-15T23:59:14.777Z,77.80
